ADDS METAR Data INFO
IDs: Format: Raw Decoded Include TAF

Data at: 1159 UTC 23 Jun 2018

KITR 231153Z AUTO 30007KT 10SM CLR 11/09 A2994 RMK AO2 SLP104 70006 T01060089 10144 20089 55002
KITR 231053Z AUTO 27006KT 10SM CLR 09/09 A2993 RMK AO2 SLP108 T00940089
KITR 230953Z AUTO 27008KT 10SM CLR 11/09 A2993 RMK AO2 SLP106 T01060094
KITR 230853Z AUTO 26004KT 10SM CLR 10/09 A2994 RMK AO2 SLP114 T01000089 57016
KITR 230753Z AUTO 28007KT 10SM CLR 10/09 A2996 RMK AO2 SLP101 T01000089
KITR 230653Z AUTO 00000KT 10SM CLR 11/10 A2998 RMK AO2 SLP107 T01060100 402830094
KITR 230553Z AUTO 02012G26KT 10SM FEW013 13/12 A3000 RMK AO2 PK WND 02026/0548 PRESRR SLP112 T01280117 10189 20094 53033
KITR 230453Z AUTO 00000KT 10SM CLR 12/11 A2994 RMK AO2 SLP096 T01170106
KITR 230353Z AUTO 00000KT 10SM CLR 13/11 A2993 RMK AO2 SLP093 T01280111
KITR 230253Z AUTO 00000KT 10SM CLR 13/11 A2989 RMK AO2 SLP080 T01330111 50003
KITR 230153Z AUTO 14006KT 10SM CLR 17/12 A2990 RMK AO2 SLP082 T01670117
KITR 230053Z AUTO 10007KT 10SM CLR 19/12 A2989 RMK AO2 SLP078 T01890117
KITR 222353Z AUTO 10010KT 10SM CLR 19/12 A2988 RMK AO2 SLP080 60006 T01890122 10283 20133 55018
KITR 222253Z AUTO 06011KT 10SM CLR 16/13 A2986 RMK AO2 SLP078 T01610128
KITR 222153Z AUTO 09009KT 10SM CLR 15/13 A2989 RMK AO2 LTG DSNT E-S RAE14 TSE07 SLP089 P0002 T01500128
KITR 222126Z AUTO 06012KT 10SM FEW039 FEW095 SCT110 15/13 A2990 RMK AO2 LTG DSNT E-SW RAE14 TSE07 P0002 T01500128
KITR 222113Z AUTO 04011KT 10SM VCTS -RA FEW037 SCT050 BKN070 14/12 A2993 RMK AO2 LTG DSNT ALQDS TSE07 P0002 T01440122
KITR 222053Z AUTO 03013KT 7SM TSRA BKN050 OVC070 14/12 A2994 RMK AO2 PK WND 35041/2005 WSHFT 1955 LTG DSNT N-SE RAB45 TSB00 SLP104 P0004 60004 T01440117 56005
KITR 222015Z AUTO 34022G36KT 10SM TS FEW014 BKN050 OVC110 14/11 A3000 RMK AO2 PK WND 35041/2005 WSHFT 1955 LTG DSNT NW-E TSB00 T01440106
KITR 222004Z AUTO 34024G40KT 10SM TS BKN050 BKN110 19/09 A3001 RMK AO2 PK WND 36040/2003 WSHFT 1950 LTG DSNT NW-NE TSB00 T01940094
KITR 221953Z AUTO 21011G22KT 10SM VCTS FEW049 SCT110 26/14 A2995 RMK AO2 PK WND 19030/1915 LTG DSNT NW-NE PRESRR SLP092 T02610139
KITR 221853Z AUTO 16015G24KT 10SM CLR 28/13 A2993 RMK AO2 PK WND 19029/1830 SLP082 T02780133
KITR 221753Z AUTO 16017G26KT 10SM CLR 26/12 A2996 RMK AO2 PK WND 18026/1748 SLP095 T02610122 10261 20128 58026
KITR 221653Z AUTO 18011KT 10SM FEW050 24/12 A3000 RMK AO2 SLP109 T02390117
KITR 221553Z AUTO 16010G17KT 10SM BKN048 22/12 A3002 RMK AO2 SLP118 T02170117
KITR 221453Z AUTO 18011KT 10SM OVC044 21/12 A3004 RMK AO2 SLP125 T02060117 53005
KITR 221353Z AUTO 19010KT 10SM BKN041 18/12 A3004 RMK AO2 SLP123 T01830117
KITR 221253Z AUTO 18007KT 10SM SCT042 BKN070 17/12 A3003 RMK AO2 SLP119 T01670122
KITR 221153Z AUTO 00000KT 10SM CLR 13/11 A3003 RMK AO2 SLP120 T01280106 10161 20122 55003
KITR 221053Z AUTO 18007KT 10SM CLR 13/11 A3001 RMK AO2 SLP114 T01280106
KITR 220953Z AUTO 15007KT 10SM CLR 12/10 A3002 RMK AO2 SLP119 T01220100
KITR 220853Z AUTO 09005KT 10SM FEW060 FEW120 15/11 A3004 RMK AO2 LTG DSNT E SLP119 T01500106 58007
KITR 220753Z AUTO 06005KT 10SM CLR 15/11 A3006 RMK AO2 LTG DSNT S SLP130 T01500111
KITR 220653Z AUTO 15003KT 10SM CLR 16/11 A3006 RMK AO2 SLP130 T01560111 402830111
KITR 220553Z AUTO 16006KT 10SM CLR 15/11 A3006 RMK AO2 WSHFT 0456 SLP132 T01500106 10278 20150 58001
KITR 220516Z AUTO 10007KT 10SM CLR 18/11 A3006 RMK AO2 WSHFT 0456 T01780106
KITR 220453Z AUTO 14007KT 110V170 10SM FEW100 18/12 A3008 RMK AO2 SLP138 T01830117
KITR 220353Z AUTO 09006KT 10SM CLR 18/12 A3009 RMK AO2 SLP142 T01830117
KITR 220253Z AUTO 08009KT 10SM CLR 20/12 A3006 RMK AO2 SLP133 T02000117 53008
KITR 220153Z AUTO 10006KT 10SM CLR 23/11 A3006 RMK AO2 SLP130 T02280106
KITR 220053Z AUTO 07011KT 10SM CLR 26/10 A3003 RMK AO2 SLP121 T02560100